sensor_id;sensor_type;location;lat;lon;timestamp;pressure;altitude;pressure_sealevel;temperature;humidity
12209;BME280;6167;43.080;25.634;2022-10-18T00:04:44;101365.22;;;6.57;100.00
12209;BME280;6167;43.080;25.634;2022-10-18T00:07:11;101359.09;;;6.57;100.00
12209;BME280;6167;43.080;25.634;2022-10-18T00:09:40;101352.94;;;6.19;100.00
12209;BME280;6167;43.080;25.634;2022-10-18T00:12:07;101365.19;;;6.31;100.00
12209;BME280;6167;43.080;25.634;2022-10-18T00:14:35;101362.56;;;6.25;100.00
12209;BME280;6167;43.080;25.634;2022-10-18T00:17:02;101364.31;;;6.17;100.00
12209;BME280;6167;43.080;25.634;2022-10-18T00:19:29;101373.06;;;6.24;100.00
12209;BME280;6167;43.080;25.634;2022-10-18T00:21:59;101366.94;;;6.15;100.00
12209;BME280;6167;43.080;25.634;2022-10-18T00:24:26;101369.56;;;6.17;100.00
12209;BME280;6167;43.080;25.634;2022-10-18T00:26:54;101366.03;;;6.09;100.00
12209;BME280;6167;43.080;25.634;2022-10-18T00:29:21;101361.66;;;6.06;100.00
12209;BME280;6167;43.080;25.634;2022-10-18T00:31:48;101363.41;;;6.10;100.00
12209;BME280;6167;43.080;25.634;2022-10-18T00:34:15;101347.66;;;6.04;100.00
12209;BME280;6167;43.080;25.634;2022-10-18T00:36:43;101350.25;;;5.94;100.00
12209;BME280;6167;43.080;25.634;2022-10-18T00:39:14;101352.91;;;6.06;100.00
12209;BME280;6167;43.080;25.634;2022-10-18T00:41:55;101351.16;;;5.97;100.00
12209;BME280;6167;43.080;25.634;2022-10-18T00:45:00;101356.31;;;5.85;100.00
12209;BME280;6167;43.080;25.634;2022-10-18T00:47:28;101346.78;;;5.96;100.00
12209;BME280;6167;43.080;25.634;2022-10-18T00:49:56;101342.41;;;6.07;100.00
12209;BME280;6167;43.080;25.634;2022-10-18T00:52:31;101337.06;;;5.78;100.00
12209;BME280;6167;43.080;25.634;2022-10-18T00:54:59;101336.19;;;5.75;100.00
12209;BME280;6167;43.080;25.634;2022-10-18T00:57:28;101340.66;;;5.97;100.00
12209;BME280;6167;43.080;25.634;2022-10-18T00:59:55;101338.91;;;5.98;100.00
12209;BME280;6167;43.080;25.634;2022-10-18T01:02:22;101327.44;;;5.86;100.00
12209;BME280;6167;43.080;25.634;2022-10-18T01:04:49;101333.63;;;6.07;100.00
12209;BME280;6167;43.080;25.634;2022-10-18T01:07:27;101327.53;;;6.14;100.00
12209;BME280;6167;43.080;25.634;2022-10-18T01:10:02;101331.84;;;5.80;100.00
12209;BME280;6167;43.080;25.634;2022-10-18T01:12:42;101328.28;;;5.67;100.00
12209;BME280;6167;43.080;25.634;2022-10-18T01:15:18;101323.03;;;5.72;100.00
12209;BME280;6167;43.080;25.634;2022-10-18T01:17:57;101314.28;;;5.59;100.00
12209;BME280;6167;43.080;25.634;2022-10-18T01:29:47;101314.25;;;5.56;100.00
12209;BME280;6167;43.080;25.634;2022-10-18T01:32:20;101293.25;;;5.62;100.00
12209;BME280;6167;43.080;25.634;2022-10-18T01:34:50;101302.88;;;5.56;100.00
12209;BME280;6167;43.080;25.634;2022-10-18T01:37:20;101300.31;;;5.75;100.00
12209;BME280;6167;43.080;25.634;2022-10-18T01:39:51;101303.78;;;5.71;100.00
12209;BME280;6167;43.080;25.634;2022-10-18T01:42:21;101299.41;;;5.58;100.00
12209;BME280;6167;43.080;25.634;2022-10-18T01:44:51;101308.19;;;5.75;100.00
12209;BME280;6167;43.080;25.634;2022-10-18T01:47:22;101309.94;;;5.75;100.00
12209;BME280;6167;43.080;25.634;2022-10-18T01:49:56;101301.16;;;5.59;100.00
12209;BME280;6167;43.080;25.634;2022-10-18T01:52:23;101309.91;;;5.70;100.00
12209;BME280;6167;43.080;25.634;2022-10-18T02:01:41;101292.34;;;5.45;100.00
12209;BME280;6167;43.080;25.634;2022-10-18T02:04:19;101298.44;;;5.41;100.00
12209;BME280;6167;43.080;25.634;2022-10-18T02:06:52;101300.25;;;5.62;100.00
12209;BME280;6167;43.080;25.634;2022-10-18T02:09:27;101296.72;;;5.43;100.00
12209;BME280;6167;43.080;25.634;2022-10-18T02:11:56;101285.28;;;5.20;100.00
12209;BME280;6167;43.080;25.634;2022-10-18T02:14:24;101295.75;;;5.23;100.00
12209;BME280;6167;43.080;25.634;2022-10-18T02:16:53;101293.22;;;5.45;100.00
12209;BME280;6167;43.080;25.634;2022-10-18T02:19:28;101294.09;;;5.35;100.00
12209;BME280;6167;43.080;25.634;2022-10-18T02:21:57;101296.72;;;5.44;100.00
12209;BME280;6167;43.080;25.634;2022-10-18T02:24:26;101300.22;;;5.46;100.00
12209;BME280;6167;43.080;25.634;2022-10-18T02:26:56;101298.44;;;5.33;100.00
12209;BME280;6167;43.080;25.634;2022-10-18T02:29:23;101296.72;;;5.47;100.00
12209;BME280;6167;43.080;25.634;2022-10-18T02:31:54;101309.91;;;5.57;100.00
12209;BME280;6167;43.080;25.634;2022-10-18T02:34:29;101293.16;;;5.20;100.00
12209;BME280;6167;43.080;25.634;2022-10-18T02:36:59;101305.38;;;5.19;100.00
12209;BME280;6167;43.080;25.634;2022-10-18T02:39:30;101295.81;;;5.35;100.00
12209;BME280;6167;43.080;25.634;2022-10-18T02:41:58;101274.75;;;5.12;100.00
12209;BME280;6167;43.080;25.634;2022-10-18T02:44:25;101292.25;;;5.21;100.00
12209;BME280;6167;43.080;25.634;2022-10-18T02:46:52;101299.06;;;4.82;100.00
12209;BME280;6167;43.080;25.634;2022-10-18T02:49:19;101304.38;;;4.91;100.00
12209;BME280;6167;43.080;25.634;2022-10-18T02:51:48;101304.47;;;5.11;100.00
12209;BME280;6167;43.080;25.634;2022-10-18T02:54:14;101299.25;;;5.18;100.00
12209;BME280;6167;43.080;25.634;2022-10-18T02:56:41;101295.75;;;5.23;100.00
12209;BME280;6167;43.080;25.634;2022-10-18T02:59:09;101297.59;;;5.36;100.00
12209;BME280;6167;43.080;25.634;2022-10-18T03:01:36;101296.72;;;5.46;100.00
12209;BME280;6167;43.080;25.634;2022-10-18T03:04:04;101280.03;;;5.26;100.00
12209;BME280;6167;43.080;25.634;2022-10-18T03:06:31;101294.94;;;5.42;100.00
12209;BME280;6167;43.080;25.634;2022-10-18T03:09:00;101290.63;;;5.55;100.00
12209;BME280;6167;43.080;25.634;2022-10-18T03:11:27;101288.81;;;5.29;100.00
12209;BME280;6167;43.080;25.634;2022-10-18T03:13:54;101296.69;;;5.32;100.00
12209;BME280;6167;43.080;25.634;2022-10-18T03:16:21;101280.94;;;5.32;100.00
12209;BME280;6167;43.080;25.634;2022-10-18T03:18:48;101289.63;;;5.13;100.00
12209;BME280;6167;43.080;25.634;2022-10-18T03:21:16;101291.38;;;5.20;100.00
12209;BME280;6167;43.080;25.634;2022-10-18T03:23:42;101287.75;;;4.88;100.00
12209;BME280;6167;43.080;25.634;2022-10-18T03:26:12;101295.59;;;4.86;100.00
12209;BME280;6167;43.080;25.634;2022-10-18T03:28:39;101291.28;;;4.94;100.00
12209;BME280;6167;43.080;25.634;2022-10-18T03:31:07;101290.41;;;5.00;100.00
12209;BME280;6167;43.080;25.634;2022-10-18T03:33:34;101289.38;;;4.70;100.00
12209;BME280;6167;43.080;25.634;2022-10-18T03:36:01;101294.72;;;4.86;100.00
12209;BME280;6167;43.080;25.634;2022-10-18T03:38:28;101299.06;;;4.83;100.00
12209;BME280;6167;43.080;25.634;2022-10-18T03:40:55;101304.13;;;4.52;100.00
12209;BME280;6167;43.080;25.634;2022-10-18T03:43:24;101299.00;;;4.71;100.00
12209;BME280;6167;43.080;25.634;2022-10-18T03:45:51;101279.75;;;4.65;100.00
12209;BME280;6167;43.080;25.634;2022-10-18T03:48:18;101297.19;;;4.64;100.00
12209;BME280;6167;43.080;25.634;2022-10-18T03:50:45;101300.81;;;4.83;100.00
12209;BME280;6167;43.080;25.634;2022-10-18T03:53:12;101295.50;;;4.71;100.00
12209;BME280;6167;43.080;25.634;2022-10-18T03:55:39;101299.72;;;4.47;100.00
12209;BME280;6167;43.080;25.634;2022-10-18T03:58:06;101298.03;;;4.60;100.00
12209;BME280;6167;43.080;25.634;2022-10-18T04:00:35;101289.22;;;4.44;100.00
12209;BME280;6167;43.080;25.634;2022-10-18T04:03:02;101301.38;;;4.36;100.00
12209;BME280;6167;43.080;25.634;2022-10-18T04:05:29;101278.66;;;4.37;100.00
12209;BME280;6167;43.080;25.634;2022-10-18T04:07:56;101302.19;;;4.29;100.00
12209;BME280;6167;43.080;25.634;2022-10-18T04:10:23;101302.97;;;4.14;100.00
12209;BME280;6167;43.080;25.634;2022-10-18T04:12:50;101299.56;;;4.29;100.00
12209;BME280;6167;43.080;25.634;2022-10-18T04:15:17;101303.97;;;4.32;100.00
12209;BME280;6167;43.080;25.634;2022-10-18T04:17:45;101302.97;;;4.18;100.00
12209;BME280;6167;43.080;25.634;2022-10-18T04:20:12;101281.97;;;4.10;100.00
12209;BME280;6167;43.080;25.634;2022-10-18T04:22:39;101301.22;;;4.20;100.00
12209;BME280;6167;43.080;25.634;2022-10-18T04:25:06;101302.00;;;4.08;100.00
12209;BME280;6167;43.080;25.634;2022-10-18T04:27:33;101292.47;;;4.18;100.00
12209;BME280;6167;43.080;25.634;2022-10-18T04:30:00;101287.28;;;4.22;100.00
12209;BME280;6167;43.080;25.634;2022-10-18T04:32:29;101288.03;;;4.06;100.00
12209;BME280;6167;43.080;25.634;2022-10-18T04:34:57;101281.94;;;4.08;100.00
12209;BME280;6167;43.080;25.634;2022-10-18T04:37:24;101289.78;;;4.07;100.00
12209;BME280;6167;43.080;25.634;2022-10-18T04:39:51;101282.09;;;4.28;100.00
12209;BME280;6167;43.080;25.634;2022-10-18T04:42:19;101287.25;;;4.18;100.00
12209;BME280;6167;43.080;25.634;2022-10-18T04:44:46;101288.13;;;4.18;100.00
12209;BME280;6167;43.080;25.634;2022-10-18T04:47:13;101284.81;;;4.42;100.00
12209;BME280;6167;43.080;25.634;2022-10-18T04:49:40;101291.81;;;4.44;100.00
12209;BME280;6167;43.080;25.634;2022-10-18T04:52:09;101269.22;;;4.57;100.00
12209;BME280;6167;43.080;25.634;2022-10-18T04:54:36;101291.34;;;5.12;100.00
12209;BME280;6167;43.080;25.634;2022-10-18T04:57:03;101292.50;;;6.32;100.00
12209;BME280;6167;43.080;25.634;2022-10-18T04:59:30;101290.75;;;5.96;100.00
12209;BME280;6167;43.080;25.634;2022-10-18T05:01:57;101276.63;;;5.51;100.00
12209;BME280;6167;43.080;25.634;2022-10-18T05:04:24;101282.00;;;6.12;100.00
12209;BME280;6167;43.080;25.634;2022-10-18T05:06:51;101278.47;;;6.52;100.00
12209;BME280;6167;43.080;25.634;2022-10-18T05:09:19;101282.88;;;6.35;100.00
12209;BME280;6167;43.080;25.634;2022-10-18T05:11:49;101278.47;;;6.54;100.00
12209;BME280;6167;43.080;25.634;2022-10-18T05:14:16;101278.44;;;6.84;100.00
12209;BME280;6167;43.080;25.634;2022-10-18T05:16:43;101280.88;;;7.32;100.00
12209;BME280;6167;43.080;25.634;2022-10-18T05:19:10;101280.06;;;7.14;100.00
12209;BME280;6167;43.080;25.634;2022-10-18T05:21:37;101277.97;;;7.82;100.00
12209;BME280;6167;43.080;25.634;2022-10-18T05:24:05;101276.63;;;8.41;100.00
12209;BME280;6167;43.080;25.634;2022-10-18T05:26:34;101269.09;;;7.93;100.00
12209;BME280;6167;43.080;25.634;2022-10-18T05:29:02;101273.00;;;8.54;100.00
12209;BME280;6167;43.080;25.634;2022-10-18T05:31:30;101272.03;;;9.38;100.00
12209;BME280;6167;43.080;25.634;2022-10-18T05:33:57;101261.81;;;9.12;100.00
12209;BME280;6167;43.080;25.634;2022-10-18T05:36:26;101275.25;;;8.93;100.00
12209;BME280;6167;43.080;25.634;2022-10-18T05:38:53;101272.41;;;9.76;100.00
12209;BME280;6167;43.080;25.634;2022-10-18T05:41:22;101259.47;;;10.64;100.00
12209;BME280;6167;43.080;25.634;2022-10-18T05:43:50;101262.31;;;10.55;100.00
12209;BME280;6167;43.080;25.634;2022-10-18T05:46:17;101249.97;;;10.00;100.00
12209;BME280;6167;43.080;25.634;2022-10-18T05:48:48;101260.84;;;10.85;100.00
12209;BME280;6167;43.080;25.634;2022-10-18T05:51:15;101262.00;;;11.56;100.00
12209;BME280;6167;43.080;25.634;2022-10-18T05:53:42;101259.13;;;10.82;100.00
12209;BME280;6167;43.080;25.634;2022-10-18T05:56:09;101264.59;;;10.25;100.00
12209;BME280;6167;43.080;25.634;2022-10-18T05:58:37;101256.78;;;11.12;100.00
12209;BME280;6167;43.080;25.634;2022-10-18T06:01:07;101262.41;;;12.15;100.00
12209;BME280;6167;43.080;25.634;2022-10-18T06:03:34;101257.34;;;11.27;100.00
12209;BME280;6167;43.080;25.634;2022-10-18T06:06:04;101260.13;;;11.63;100.00
12209;BME280;6167;43.080;25.634;2022-10-18T06:08:32;101255.09;;;12.59;100.00
12209;BME280;6167;43.080;25.634;2022-10-18T06:11:04;101249.63;;;12.31;100.00
12209;BME280;6167;43.080;25.634;2022-10-18T06:13:31;101251.53;;;11.10;100.00
12209;BME280;6167;43.080;25.634;2022-10-18T06:15:59;101251.31;;;11.99;100.00
12209;BME280;6167;43.080;25.634;2022-10-18T06:18:27;101252.97;;;13.04;100.00
12209;BME280;6167;43.080;25.634;2022-10-18T06:20:58;101244.94;;;13.07;100.00
12209;BME280;6167;43.080;25.634;2022-10-18T06:23:25;101250.22;;;12.76;100.00
12209;BME280;6167;43.080;25.634;2022-10-18T06:25:53;101250.78;;;13.20;100.00
12209;BME280;6167;43.080;25.634;2022-10-18T06:28:23;101256.19;;;13.46;100.00
12209;BME280;6167;43.080;25.634;2022-10-18T06:30:50;101224.50;;;12.78;100.00
12209;BME280;6167;43.080;25.634;2022-10-18T06:33:17;101239.16;;;12.91;100.00
12209;BME280;6167;43.080;25.634;2022-10-18T06:35:55;101234.47;;;13.89;100.00
12209;BME280;6167;43.080;25.634;2022-10-18T06:38:22;101230.78;;;14.96;89.82
12209;BME280;6167;43.080;25.634;2022-10-18T06:40:53;101241.16;;;14.27;91.76
12209;BME280;6167;43.080;25.634;2022-10-18T06:43:23;101226.03;;;15.04;88.29
12209;BME280;6167;43.080;25.634;2022-10-18T06:45:52;101216.69;;;15.62;80.26
12209;BME280;6167;43.080;25.634;2022-10-18T06:48:19;101227.66;;;15.55;79.45
12209;BME280;6167;43.080;25.634;2022-10-18T06:50:50;101230.97;;;15.38;82.60
12209;BME280;6167;43.080;25.634;2022-10-18T06:53:19;101213.91;;;15.65;100.00
12209;BME280;6167;43.080;25.634;2022-10-18T06:55:46;101219.69;;;16.40;79.94
12209;BME280;6167;43.080;25.634;2022-10-18T06:58:13;101209.63;;;17.25;78.10
12209;BME280;6167;43.080;25.634;2022-10-18T07:00:41;101215.78;;;17.83;63.86
12209;BME280;6167;43.080;25.634;2022-10-18T07:03:09;101196.50;;;18.65;70.22
12209;BME280;6167;43.080;25.634;2022-10-18T07:05:36;101198.16;;;19.16;62.52
12209;BME280;6167;43.080;25.634;2022-10-18T07:08:04;101192.00;;;19.63;56.49
12209;BME280;6167;43.080;25.634;2022-10-18T07:10:33;101199.59;;;19.86;54.34
12209;BME280;6167;43.080;25.634;2022-10-18T07:13:00;101196.13;;;19.84;54.26
12209;BME280;6167;43.080;25.634;2022-10-18T07:15:28;101191.91;;;20.55;52.26
12209;BME280;6167;43.080;25.634;2022-10-18T07:17:55;101189.81;;;21.32;49.50
12209;BME280;6167;43.080;25.634;2022-10-18T07:20:23;101186.22;;;21.86;48.46
12209;BME280;6167;43.080;25.634;2022-10-18T07:22:49;101186.34;;;20.73;49.37
12209;BME280;6167;43.080;25.634;2022-10-18T07:25:16;101186.22;;;20.00;52.08
12209;BME280;6167;43.080;25.634;2022-10-18T07:27:45;101185.31;;;20.89;51.09
12209;BME280;6167;43.080;25.634;2022-10-18T07:30:12;101160.88;;;21.49;50.72
12209;BME280;6167;43.080;25.634;2022-10-18T07:32:39;101176.19;;;21.20;50.36
12209;BME280;6167;43.080;25.634;2022-10-18T07:35:06;101163.69;;;21.05;49.46
12209;BME280;6167;43.080;25.634;2022-10-18T07:37:33;101163.97;;;21.97;49.59
12209;BME280;6167;43.080;25.634;2022-10-18T07:40:00;101160.63;;;22.33;47.35
12209;BME280;6167;43.080;25.634;2022-10-18T07:42:27;101156.09;;;22.34;46.91
12209;BME280;6167;43.080;25.634;2022-10-18T07:44:55;101156.56;;;21.74;46.57
12209;BME280;6167;43.080;25.634;2022-10-18T07:47:22;101152.66;;;22.32;48.54
12209;BME280;6167;43.080;25.634;2022-10-18T07:49:49;101144.31;;;23.23;46.75
12209;BME280;6167;43.080;25.634;2022-10-18T07:52:16;101136.50;;;23.44;44.12
12209;BME280;6167;43.080;25.634;2022-10-18T07:54:43;101135.38;;;24.18;44.72
12209;BME280;6167;43.080;25.634;2022-10-18T07:57:10;101137.94;;;24.55;41.34
12209;BME280;6167;43.080;25.634;2022-10-18T07:59:37;101105.75;;;24.63;40.72
12209;BME280;6167;43.080;25.634;2022-10-18T08:02:06;101130.09;;;25.30;41.14
12209;BME280;6167;43.080;25.634;2022-10-18T08:04:32;101113.84;;;25.84;39.64
12209;BME280;6167;43.080;25.634;2022-10-18T08:06:59;101124.19;;;26.11;38.67
12209;BME280;6167;43.080;25.634;2022-10-18T08:09:26;101123.53;;;26.40;38.28
12209;BME280;6167;43.080;25.634;2022-10-18T08:11:53;101116.81;;;26.64;37.32
12209;BME280;6167;43.080;25.634;2022-10-18T08:14:20;101115.88;;;26.45;36.79
12209;BME280;6167;43.080;25.634;2022-10-18T08:16:47;101120.53;;;26.63;36.81
12209;BME280;6167;43.080;25.634;2022-10-18T08:19:15;101109.78;;;26.83;36.91
12209;BME280;6167;43.080;25.634;2022-10-18T08:21:42;101113.22;;;26.85;36.45
12209;BME280;6167;43.080;25.634;2022-10-18T08:24:09;101106.97;;;26.94;36.29
12209;BME280;6167;43.080;25.634;2022-10-18T08:26:36;101101.31;;;26.97;35.82
12209;BME280;6167;43.080;25.634;2022-10-18T08:29:03;101103.53;;;26.92;36.52
12209;BME280;6167;43.080;25.634;2022-10-18T08:31:30;101096.94;;;26.54;37.15
12209;BME280;6167;43.080;25.634;2022-10-18T08:33:57;101094.56;;;25.66;38.12
12209;BME280;6167;43.080;25.634;2022-10-18T08:36:25;101090.28;;;26.17;37.82
12209;BME280;6167;43.080;25.634;2022-10-18T08:38:52;101085.72;;;26.17;37.48
12209;BME280;6167;43.080;25.634;2022-10-18T08:41:31;101086.16;;;26.43;37.50
12209;BME280;6167;43.080;25.634;2022-10-18T08:44:05;101083.59;;;26.42;37.58
12209;BME280;6167;43.080;25.634;2022-10-18T08:46:37;101070.38;;;26.48;38.30
12209;BME280;6167;43.080;25.634;2022-10-18T08:49:10;101085.03;;;26.46;37.96
12209;BME280;6167;43.080;25.634;2022-10-18T08:51:45;101064.06;;;26.48;37.55
12209;BME280;6167;43.080;25.634;2022-10-18T08:54:19;101061.25;;;26.08;37.82
12209;BME280;6167;43.080;25.634;2022-10-18T08:56:58;101066.31;;;25.80;38.18
12209;BME280;6167;43.080;25.634;2022-10-18T08:59:29;101059.88;;;26.13;38.46
12209;BME280;6167;43.080;25.634;2022-10-18T09:02:03;101063.31;;;26.15;38.15
12209;BME280;6167;43.080;25.634;2022-10-18T09:04:46;101063.03;;;26.18;37.07
12209;BME280;6167;43.080;25.634;2022-10-18T09:07:26;101043.88;;;25.89;38.34
12209;BME280;6167;43.080;25.634;2022-10-18T09:10:05;101053.13;;;25.87;37.74
12209;BME280;6167;43.080;25.634;2022-10-18T09:12:49;101051.53;;;25.84;37.31
12209;BME280;6167;43.080;25.634;2022-10-18T09:15:28;101048.56;;;25.87;37.27
12209;BME280;6167;43.080;25.634;2022-10-18T09:18:10;101037.22;;;26.24;37.31
12209;BME280;6167;43.080;25.634;2022-10-18T09:20:48;101036.03;;;26.58;36.65
12209;BME280;6167;43.080;25.634;2022-10-18T09:23:20;101032.75;;;26.64;35.32
12209;BME280;6167;43.080;25.634;2022-10-18T09:25:48;101026.09;;;26.78;35.35
12209;BME280;6167;43.080;25.634;2022-10-18T09:28:27;101021.63;;;26.67;35.98
12209;BME280;6167;43.080;25.634;2022-10-18T09:31:05;101022.53;;;26.78;34.99
12209;BME280;6167;43.080;25.634;2022-10-18T09:33:40;101016.47;;;26.64;35.42
12209;BME280;6167;43.080;25.634;2022-10-18T09:36:13;101013.97;;;26.00;36.52
12209;BME280;6167;43.080;25.634;2022-10-18T09:38:45;101016.31;;;25.20;37.27
12209;BME280;6167;43.080;25.634;2022-10-18T09:41:18;100997.41;;;25.09;37.08
12209;BME280;6167;43.080;25.634;2022-10-18T09:43:50;101020.56;;;23.78;38.85
12209;BME280;6167;43.080;25.634;2022-10-18T09:46:25;101012.56;;;24.22;37.30
12209;BME280;6167;43.080;25.634;2022-10-18T09:48:55;101000.66;;;24.36;37.41
12209;BME280;6167;43.080;25.634;2022-10-18T09:51:25;100990.91;;;24.11;37.80
12209;BME280;6167;43.080;25.634;2022-10-18T09:54:02;100992.63;;;24.01;39.30
12209;BME280;6167;43.080;25.634;2022-10-18T09:56:35;100987.03;;;24.71;38.77
12209;BME280;6167;43.080;25.634;2022-10-18T09:59:06;100978.53;;;24.53;37.34
12209;BME280;6167;43.080;25.634;2022-10-18T10:01:38;100973.38;;;24.17;39.54
12209;BME280;6167;43.080;25.634;2022-10-18T10:04:04;100968.84;;;24.62;37.50
12209;BME280;6167;43.080;25.634;2022-10-18T10:06:31;100966.47;;;25.23;36.34
12209;BME280;6167;43.080;25.634;2022-10-18T10:09:12;100958.88;;;25.90;37.18
12209;BME280;6167;43.080;25.634;2022-10-18T10:11:44;100954.31;;;25.49;28.78
12209;BME280;6167;43.080;25.634;2022-10-18T10:14:14;100951.28;;;25.84;29.16
12209;BME280;6167;43.080;25.634;2022-10-18T10:16:47;100943.53;;;26.00;27.81
12209;BME280;6167;43.080;25.634;2022-10-18T10:19:22;100931.53;;;25.93;29.83
12209;BME280;6167;43.080;25.634;2022-10-18T10:21:54;100930.38;;;26.26;32.01
12209;BME280;6167;43.080;25.634;2022-10-18T10:24:33;100920.34;;;26.38;32.85
12209;BME280;6167;43.080;25.634;2022-10-18T10:27:03;100919.84;;;24.87;32.48
12209;BME280;6167;43.080;25.634;2022-10-18T10:29:54;100915.41;;;24.97;33.37
12209;BME280;6167;43.080;25.634;2022-10-18T10:32:25;100917.00;;;25.00;32.64
12209;BME280;6167;43.080;25.634;2022-10-18T10:34:52;100902.22;;;24.72;32.27
12209;BME280;6167;43.080;25.634;2022-10-18T10:37:29;100912.72;;;24.10;33.03
12209;BME280;6167;43.080;25.634;2022-10-18T10:40:22;100904.31;;;23.57;34.41
12209;BME280;6167;43.080;25.634;2022-10-18T10:42:56;100904.00;;;23.38;34.76
12209;BME280;6167;43.080;25.634;2022-10-18T10:45:25;100903.25;;;23.93;33.57
12209;BME280;6167;43.080;25.634;2022-10-18T10:47:54;100878.31;;;24.34;33.93
12209;BME280;6167;43.080;25.634;2022-10-18T10:50:28;100890.59;;;23.93;33.66
12209;BME280;6167;43.080;25.634;2022-10-18T10:52:55;100884.28;;;24.60;32.65
12209;BME280;6167;43.080;25.634;2022-10-18T10:55:27;100871.88;;;25.00;34.06
12209;BME280;6167;43.080;25.634;2022-10-18T10:57:58;100865.69;;;25.30;33.96
12209;BME280;6167;43.080;25.634;2022-10-18T11:00:36;100865.41;;;24.81;32.85
12209;BME280;6167;43.080;25.634;2022-10-18T11:03:10;100868.72;;;24.84;33.04
12209;BME280;6167;43.080;25.634;2022-10-18T11:05:44;100865.03;;;24.42;33.04
12209;BME280;6167;43.080;25.634;2022-10-18T11:08:14;100862.63;;;24.71;33.47
12209;BME280;6167;43.080;25.634;2022-10-18T11:10:51;100858.78;;;24.42;33.74
12209;BME280;6167;43.080;25.634;2022-10-18T11:13:26;100844.28;;;24.75;33.30
12209;BME280;6167;43.080;25.634;2022-10-18T11:15:58;100848.97;;;24.29;34.02
12209;BME280;6167;43.080;25.634;2022-10-18T11:18:29;100847.88;;;24.10;33.77
12209;BME280;6167;43.080;25.634;2022-10-18T11:21:01;100852.91;;;23.58;34.82
12209;BME280;6167;43.080;25.634;2022-10-18T11:23:33;100843.47;;;24.09;33.72
12209;BME280;6167;43.080;25.634;2022-10-18T11:26:20;100843.22;;;24.01;33.90
12209;BME280;6167;43.080;25.634;2022-10-18T11:29:03;100830.53;;;24.23;33.98
12209;BME280;6167;43.080;25.634;2022-10-18T11:31:40;100825.50;;;24.19;33.81
12209;BME280;6167;43.080;25.634;2022-10-18T11:34:24;100831.19;;;23.60;35.24
12209;BME280;6167;43.080;25.634;2022-10-18T11:36:59;100821.84;;;24.09;34.61
12209;BME280;6167;43.080;25.634;2022-10-18T11:39:38;100817.56;;;23.73;34.90
12209;BME280;6167;43.080;25.634;2022-10-18T11:42:15;100812.63;;;24.00;34.05
12209;BME280;6167;43.080;25.634;2022-10-18T11:44:51;100806.34;;;24.22;34.82
12209;BME280;6167;43.080;25.634;2022-10-18T11:47:24;100801.44;;;24.16;34.10
12209;BME280;6167;43.080;25.634;2022-10-18T11:50:04;100793.72;;;24.54;34.62
12209;BME280;6167;43.080;25.634;2022-10-18T11:52:38;100781.44;;;24.82;32.86
12209;BME280;6167;43.080;25.634;2022-10-18T11:55:26;100777.91;;;24.50;33.37
12209;BME280;6167;43.080;25.634;2022-10-18T11:58:02;100778.22;;;24.88;34.27
12209;BME280;6167;43.080;25.634;2022-10-18T12:00:45;100762.78;;;25.00;32.79
12209;BME280;6167;43.080;25.634;2022-10-18T12:03:25;100769.97;;;24.69;33.72
12209;BME280;6167;43.080;25.634;2022-10-18T12:05:56;100766.19;;;24.60;32.69
12209;BME280;6167;43.080;25.634;2022-10-18T12:08:26;100762.25;;;24.21;33.24
12209;BME280;6167;43.080;25.634;2022-10-18T12:10:56;100757.81;;;24.63;34.75
12209;BME280;6167;43.080;25.634;2022-10-18T12:13:34;100757.03;;;24.73;33.51
12209;BME280;6167;43.080;25.634;2022-10-18T12:16:04;100744.94;;;24.77;33.84
12209;BME280;6167;43.080;25.634;2022-10-18T12:18:33;100748.06;;;23.97;33.85
12209;BME280;6167;43.080;25.634;2022-10-18T12:21:04;100741.53;;;24.11;33.73
12209;BME280;6167;43.080;25.634;2022-10-18T12:23:41;100741.28;;;24.25;33.18
12209;BME280;6167;43.080;25.634;2022-10-18T12:26:10;100738.44;;;24.26;33.53
12209;BME280;6167;43.080;25.634;2022-10-18T12:28:46;100740.09;;;23.95;34.00
12209;BME280;6167;43.080;25.634;2022-10-18T12:31:21;100721.13;;;23.52;34.29
12209;BME280;6167;43.080;25.634;2022-10-18T12:33:52;100728.81;;;23.35;34.88
12209;BME280;6167;43.080;25.634;2022-10-18T12:36:37;100726.38;;;23.43;34.57
12209;BME280;6167;43.080;25.634;2022-10-18T12:39:11;100724.81;;;23.62;33.83
12209;BME280;6167;43.080;25.634;2022-10-18T12:41:46;100719.59;;;23.93;33.11
12209;BME280;6167;43.080;25.634;2022-10-18T12:44:20;100706.31;;;24.01;34.29
12209;BME280;6167;43.080;25.634;2022-10-18T12:46:49;100709.13;;;23.99;32.72
12209;BME280;6167;43.080;25.634;2022-10-18T12:49:20;100696.94;;;23.40;32.92
12209;BME280;6167;43.080;25.634;2022-10-18T12:51:52;100688.00;;;23.17;32.51
12209;BME280;6167;43.080;25.634;2022-10-18T12:54:22;100697.53;;;23.32;32.97
12209;BME280;6167;43.080;25.634;2022-10-18T12:56:51;100693.03;;;23.55;32.01
12209;BME280;6167;43.080;25.634;2022-10-18T12:59:50;100699.53;;;23.63;33.03
12209;BME280;6167;43.080;25.634;2022-10-18T13:04:56;100698.19;;;23.69;32.69
12209;BME280;6167;43.080;25.634;2022-10-18T13:07:39;100693.97;;;23.76;32.06
12209;BME280;6167;43.080;25.634;2022-10-18T13:10:39;100689.22;;;23.24;32.81
12209;BME280;6167;43.080;25.634;2022-10-18T13:16:33;100677.41;;;23.70;33.64
12209;BME280;6167;43.080;25.634;2022-10-18T13:19:16;100674.13;;;23.55;32.84
12209;BME280;6167;43.080;25.634;2022-10-18T13:21:50;100678.97;;;22.72;33.59
12209;BME280;6167;43.080;25.634;2022-10-18T13:24:25;100669.72;;;22.98;34.11
12209;BME280;6167;43.080;25.634;2022-10-18T13:27:25;100669.72;;;23.09;32.45
12209;BME280;6167;43.080;25.634;2022-10-18T13:30:13;100668.00;;;23.08;32.94
12209;BME280;6167;43.080;25.634;2022-10-18T13:32:52;100669.47;;;23.23;32.42
12209;BME280;6167;43.080;25.634;2022-10-18T13:35:44;100657.72;;;23.24;33.89